Time;durP1;ratioP1;P1;durP2;ratioP2;P2;SDS_P1;SDS_P2;PMS_P1;PMS_P2;Temp;Humidity;BMP_temperature;BMP_pressure;BME280_temperature;BME280_humidity;BME280_pressure;Samples;Min_cycle;Max_cycle;Signal;HPM_P1;HPM_P2
2023/12/02 00:00:37;;;;;;;73.82;54.10;;;;;;;3.34;100.00;99592.69;5072355;28;20024;-78
2023/12/02 00:03:03;;;;;;;51.47;34.45;;;;;;;3.04;100.00;99565.53;5054305;28;20017;-78
2023/12/02 00:05:28;;;;;;;37.60;25.48;;;;;;;2.79;100.00;99585.03;5053891;28;20028;-78
2023/12/02 00:07:54;;;;;;;33.20;21.70;;;;;;;2.33;100.00;99569.34;5049189;28;20123;-79
2023/12/02 00:10:19;;;;;;;35.58;21.73;;;;;;;2.65;100.00;99583.19;5075473;28;20036;-79
2023/12/02 00:12:45;;;;;;;40.60;23.92;;;;;;;2.75;100.00;99578.50;5089271;28;20020;-81
2023/12/02 00:15:10;;;;;;;36.40;22.55;;;;;;;3.13;100.00;99591.59;5091529;28;20052;-80
2023/12/02 00:17:35;;;;;;;39.03;23.40;;;;;;;3.25;100.00;99583.22;5099129;28;20040;-79
2023/12/02 00:20:02;;;;;;;40.28;23.25;;;;;;;2.79;100.00;99571.88;5088306;28;20456;-79
2023/12/02 00:22:28;;;;;;;41.13;23.88;;;;;;;3.11;100.00;99561.97;5090451;28;20032;-78
2023/12/02 00:24:53;;;;;;;70.00;45.50;;;;;;;3.06;100.00;99582.78;5090586;28;20056;-79
2023/12/02 00:27:18;;;;;;;51.22;26.55;;;;;;;3.14;100.00;99598.50;5090386;28;20028;-79
2023/12/02 00:29:44;;;;;;;53.53;27.23;;;;;;;3.37;100.00;99589.66;5089788;28;20063;-82
2023/12/02 00:32:09;;;;;;;61.25;38.17;;;;;;;3.37;100.00;99590.50;5090374;28;20032;-79
2023/12/02 00:34:35;;;;;;;101.45;62.60;;;;;;;3.31;100.00;99577.22;5087011;28;20028;-78
2023/12/02 00:37:00;;;;;;;121.63;77.28;;;;;;;3.38;100.00;99564.94;5086701;28;20569;-79
2023/12/02 00:39:27;;;;;;;51.22;32.85;;;;;;;3.24;100.00;99552.63;5087362;28;20032;-77
2023/12/02 00:41:52;;;;;;;172.07;106.22;;;;;;;2.89;100.00;99562.91;5086568;28;20055;-78
2023/12/02 00:44:18;;;;;;;39.58;26.05;;;;;;;2.64;100.00;99555.25;5076192;28;20029;-79
2023/12/02 00:46:44;;;;;;;41.97;24.88;;;;;;;2.88;100.00;99566.50;5075340;28;20020;-79
2023/12/02 00:49:09;;;;;;;49.15;28.45;;;;;;;3.19;100.00;99546.06;5085087;28;20025;-81
2023/12/02 00:51:35;;;;;;;151.80;81.20;;;;;;;3.02;100.00;99536.72;5084240;28;20043;-79
2023/12/02 00:54:00;;;;;;;99.65;51.72;;;;;;;2.87;100.00;99547.25;5084174;28;20048;-80
2023/12/02 00:56:25;;;;;;;70.53;36.47;;;;;;;2.74;100.00;99561.06;5062336;28;20147;-78
2023/12/02 00:58:51;;;;;;;59.20;30.75;;;;;;;2.72;100.00;99563.06;5058042;28;20033;-78
2023/12/02 01:01:16;;;;;;;38.45;24.83;;;;;;;2.68;100.00;99551.25;5073489;28;20090;-78
2023/12/02 01:03:41;;;;;;;43.10;24.95;;;;;;;2.78;100.00;99569.44;5072330;28;20031;-78
2023/12/02 01:06:07;;;;;;;50.92;24.70;;;;;;;2.32;100.00;99562.44;5072251;28;20564;-78
2023/12/02 01:08:33;;;;;;;38.95;22.42;;;;;;;2.72;100.00;99565.69;5072041;28;20033;-81
2023/12/02 01:10:58;;;;;;;40.50;22.73;;;;;;;2.34;100.00;99575.41;5071439;28;20158;-77
2023/12/02 01:13:24;;;;;;;43.15;23.40;;;;;;;2.52;100.00;99551.41;5071120;28;20032;-78
2023/12/02 01:15:49;;;;;;;98.07;67.97;;;;;;;2.95;100.00;99564.81;5053704;28;20066;-79
2023/12/02 01:18:14;;;;;;;56.53;37.85;;;;;;;2.82;100.00;99557.53;5071074;28;20033;-78
2023/12/02 01:20:40;;;;;;;36.35;22.98;;;;;;;2.33;100.00;99531.66;5070366;28;20041;-79
2023/12/02 01:23:05;;;;;;;35.90;23.23;;;;;;;2.37;100.00;99573.25;5070942;28;20480;-79
2023/12/02 01:25:30;;;;;;;53.63;25.23;;;;;;;2.70;100.00;99554.53;5070602;28;20024;-79
2023/12/02 01:27:56;;;;;;;39.30;22.88;;;;;;;2.98;100.00;99551.25;5070192;28;20616;-79
2023/12/02 01:30:21;;;;;;;34.55;22.67;;;;;;;2.85;100.00;99543.19;5052353;28;20032;-78
2023/12/02 01:32:47;;;;;;;34.00;23.10;;;;;;;2.86;100.00;99531.63;5070227;28;20032;-80
2023/12/02 01:35:12;;;;;;;44.58;23.50;;;;;;;2.65;100.00;99527.91;5070235;28;20035;-80
2023/12/02 01:37:38;;;;;;;47.10;26.08;;;;;;;2.77;100.00;99531.72;5070097;28;20434;-79
2023/12/02 01:40:03;;;;;;;51.42;29.20;;;;;;;2.49;100.00;99499.94;5051884;28;20124;-79
2023/12/02 01:42:29;;;;;;;58.58;28.58;;;;;;;2.47;100.00;99501.94;5070385;28;20060;-79
2023/12/02 01:44:54;;;;;;;51.67;27.58;;;;;;;2.81;100.00;99521.66;5070346;28;20039;-79
2023/12/02 01:47:19;;;;;;;45.03;24.90;;;;;;;2.55;100.00;99501.03;5051699;28;20111;-78
2023/12/02 01:49:47;;;;;;;45.53;24.70;;;;;;;2.78;100.00;99520.22;5069745;28;20028;-78
2023/12/02 01:52:13;;;;;;;43.30;24.33;;;;;;;3.31;100.00;99546.44;5070199;28;20040;-79
2023/12/02 01:54:38;;;;;;;46.30;24.80;;;;;;;2.75;100.00;99520.56;5070342;28;20318;-80
2023/12/02 01:57:04;;;;;;;40.53;23.88;;;;;;;2.52;100.00;99531.16;5051985;28;20037;-80
2023/12/02 01:59:30;;;;;;;50.35;30.52;;;;;;;2.29;100.00;99494.41;5069323;28;20573;-78
2023/12/02 02:01:56;;;;;;;40.80;23.25;;;;;;;2.35;100.00;99520.00;5069369;28;20028;-79
2023/12/02 02:04:21;;;;;;;35.53;21.73;;;;;;;2.67;100.00;99507.47;5069553;28;20032;-78
2023/12/02 02:06:48;;;;;;;34.45;20.88;;;;;;;2.81;100.00;99498.78;5069476;28;20040;-80
2023/12/02 02:09:14;;;;;;;34.42;20.33;;;;;;;3.02;100.00;99515.66;5051662;28;20028;-79
2023/12/02 02:11:39;;;;;;;33.78;20.35;;;;;;;2.58;100.00;99513.84;5069327;28;20063;-79
2023/12/02 02:14:04;;;;;;;37.03;21.45;;;;;;;2.34;100.00;99513.06;5069319;28;20409;-79
2023/12/02 02:16:30;;;;;;;39.08;22.60;;;;;;;2.11;100.00;99501.81;5068726;28;20102;-80
2023/12/02 02:18:55;;;;;;;44.42;24.95;;;;;;;2.22;100.00;99525.03;5069092;28;20033;-78
2023/12/02 02:21:21;;;;;;;41.25;23.55;;;;;;;1.84;100.00;99506.63;5069364;28;20085;-78
2023/12/02 02:23:46;;;;;;;41.08;24.48;;;;;;;2.29;100.00;99502.28;5069278;28;20020;-79
2023/12/02 02:26:12;;;;;;;48.22;26.63;;;;;;;2.37;100.00;99509.25;5069377;28;20032;-80
2023/12/02 02:28:37;;;;;;;49.28;28.17;;;;;;;2.60;100.00;99544.25;5068905;28;20032;-78
2023/12/02 02:31:03;;;;;;;71.20;29.95;;;;;;;2.87;100.00;99520.13;5069217;28;20033;-79
2023/12/02 02:33:31;;;;;;;64.53;29.02;;;;;;;2.39;100.00;99534.44;5068743;28;20024;-78
2023/12/02 02:35:57;;;;;;;88.03;30.65;;;;;;;2.16;100.00;99531.00;5069037;28;20063;-80
2023/12/02 02:38:23;;;;;;;78.50;29.63;;;;;;;2.31;100.00;99534.50;5068579;28;20034;-79
2023/12/02 02:40:48;;;;;;;121.00;34.47;;;;;;;2.32;100.00;99522.97;5069126;28;20037;-78
2023/12/02 02:43:14;;;;;;;68.22;31.48;;;;;;;2.70;100.00;99512.41;5068948;28;20082;-78
2023/12/02 02:45:39;;;;;;;70.35;30.13;;;;;;;2.06;100.00;99522.53;5051096;28;20036;-79
2023/12/02 02:48:05;;;;;;;107.78;31.08;;;;;;;2.30;100.00;99516.25;5050761;28;20032;-80
2023/12/02 02:50:30;;;;;;;60.88;31.42;;;;;;;2.50;100.00;99527.09;5069036;28;20115;-78
2023/12/02 02:52:56;;;;;;;66.85;29.15;;;;;;;1.52;100.00;99491.88;5068427;28;20024;-79
2023/12/02 02:55:21;;;;;;;75.55;30.65;;;;;;;1.94;100.00;99544.00;5068541;28;20551;-79
2023/12/02 02:57:46;;;;;;;81.32;30.60;;;;;;;2.02;100.00;99522.06;5068848;28;20033;-78
2023/12/02 03:00:12;;;;;;;110.40;32.42;;;;;;;1.97;100.00;99506.00;5068751;28;20036;-79
2023/12/02 03:02:39;;;;;;;136.85;34.70;;;;;;;1.86;100.00;99488.00;5068570;28;20025;-79
2023/12/02 03:05:05;;;;;;;78.47;32.75;;;;;;;1.89;100.00;99470.06;5068735;28;20484;-79
2023/12/02 03:07:31;;;;;;;73.82;31.92;;;;;;;1.81;100.00;99504.31;5070454;28;20541;-80
2023/12/02 03:09:57;;;;;;;78.35;32.70;;;;;;;1.58;100.00;99457.84;5050885;28;20500;-78
2023/12/02 03:12:23;;;;;;;126.63;32.20;;;;;;;1.99;100.00;99494.31;5068318;28;20116;-78
2023/12/02 03:14:48;;;;;;;105.07;35.67;;;;;;;2.44;100.00;99475.19;5068762;28;20036;-79
2023/12/02 03:17:14;;;;;;;76.43;35.90;;;;;;;2.64;100.00;99497.34;5050488;28;20239;-79
2023/12/02 03:19:40;;;;;;;66.43;31.27;;;;;;;2.87;100.00;99494.59;5050356;28;20052;-79
2023/12/02 03:22:06;;;;;;;59.72;31.25;;;;;;;2.74;100.00;99455.75;5048764;28;20033;-79
2023/12/02 03:24:31;;;;;;;54.40;31.38;;;;;;;3.11;100.00;99480.31;5048469;28;20098;-78
2023/12/02 03:26:57;;;;;;;51.03;31.35;;;;;;;3.06;100.00;99474.75;5047967;28;20025;-78
2023/12/02 03:29:22;;;;;;;47.65;30.17;;;;;;;2.96;100.00;99482.13;5048633;28;20029;-78
2023/12/02 03:31:47;;;;;;;44.90;29.60;;;;;;;2.87;100.00;99484.06;5061691;28;20032;-79
2023/12/02 03:34:13;;;;;;;49.53;31.88;;;;;;;2.68;100.00;99429.34;5068116;28;20028;-79
2023/12/02 03:36:39;;;;;;;157.15;84.15;;;;;;;2.79;100.00;99490.22;5067331;28;20032;-79
2023/12/02 03:39:05;;;;;;;71.05;40.72;;;;;;;2.95;100.00;99494.50;5044345;28;20034;-79
2023/12/02 03:41:32;;;;;;;50.10;28.85;;;;;;;2.98;100.00;99488.03;5054871;28;20052;-78
2023/12/02 03:43:57;;;;;;;100.47;55.70;;;;;;;3.09;100.00;99484.94;5048595;28;20485;-79
2023/12/02 03:46:23;;;;;;;142.65;67.97;;;;;;;2.54;100.00;99449.41;5048250;28;20036;-80
2023/12/02 03:48:48;;;;;;;61.15;34.17;;;;;;;2.84;100.00;99470.44;5047741;28;20029;-79
2023/12/02 03:51:13;;;;;;;90.57;42.78;;;;;;;2.83;100.00;99458.28;5047997;28;20529;-79
2023/12/02 03:53:39;;;;;;;93.20;36.35;;;;;;;2.93;100.00;99485.16;5047690;28;20032;-79
2023/12/02 03:56:06;;;;;;;168.02;69.57;;;;;;;2.94;100.00;99460.44;5047496;28;20120;-78
2023/12/02 03:58:31;;;;;;;94.55;40.67;;;;;;;2.72;100.00;99454.31;5029989;28;20124;-80
2023/12/02 04:00:57;;;;;;;107.47;37.03;;;;;;;2.57;100.00;99441.94;5047655;28;20108;-80
2023/12/02 04:03:22;;;;;;;73.75;32.10;;;;;;;2.96;100.00;99453.16;5047686;28;20112;-79
2023/12/02 04:05:49;;;;;;;72.65;31.67;;;;;;;2.29;100.00;99468.09;5029523;28;20029;-81
2023/12/02 04:08:15;;;;;;;64.82;31.48;;;;;;;2.59;100.00;99474.16;5047821;28;20078;-80
2023/12/02 04:10:40;;;;;;;75.93;31.45;;;;;;;2.57;100.00;99470.91;5047264;28;20020;-79
2023/12/02 04:13:06;;;;;;;72.93;34.33;;;;;;;1.98;100.00;99434.00;5047455;28;20055;-80
2023/12/02 04:15:31;;;;;;;98.18;33.70;;;;;;;2.17;100.00;99469.53;5047325;28;20075;-79
2023/12/02 04:17:57;;;;;;;222.52;109.43;;;;;;;2.27;100.00;99417.47;5047650;28;20025;-77
2023/12/02 04:20:22;;;;;;;525.20;238.73;;;;;;;2.10;100.00;99426.50;5059808;28;20101;-77
2023/12/02 04:22:47;;;;;;;107.30;49.95;;;;;;;1.97;100.00;99416.59;5070766;28;20485;-78
2023/12/02 04:25:13;;;;;;;57.20;29.40;;;;;;;2.00;100.00;99419.69;5053385;28;20024;-78
2023/12/02 04:27:41;;;;;;;89.63;35.72;;;;;;;1.72;100.00;99393.16;5071538;28;20085;-78
2023/12/02 04:30:08;;;;;;;72.70;37.45;;;;;;;2.01;100.00;99439.72;5071510;28;20037;-78
2023/12/02 04:32:33;;;;;;;78.40;32.63;;;;;;;2.48;100.00;99450.13;5071232;28;20028;-77
2023/12/02 04:34:59;;;;;;;65.15;33.88;;;;;;;2.56;100.00;99403.47;5071027;28;20037;-77
2023/12/02 04:37:24;;;;;;;89.07;44.75;;;;;;;2.29;100.00;99441.78;5071049;28;20033;-77
2023/12/02 04:39:52;;;;;;;66.60;31.52;;;;;;;2.14;100.00;99439.09;5071131;28;20520;-77
2023/12/02 04:42:17;;;;;;;59.85;29.73;;;;;;;1.91;100.00;99431.28;5070946;28;20153;-77
2023/12/02 04:44:43;;;;;;;60.17;30.73;;;;;;;1.64;100.00;99416.09;5071334;28;20062;-77
2023/12/02 04:47:08;;;;;;;78.88;29.73;;;;;;;1.72;100.00;99423.91;5071328;28;20027;-77
2023/12/02 04:49:33;;;;;;;95.60;29.50;;;;;;;1.82;100.00;99392.91;5053041;28;20400;-77
2023/12/02 04:51:59;;;;;;;78.88;29.23;;;;;;;2.27;100.00;99432.41;5071004;28;20024;-78
2023/12/02 04:54:24;;;;;;;68.35;31.77;;;;;;;2.09;100.00;99388.88;5071314;28;20037;-77
2023/12/02 04:56:50;;;;;;;82.60;33.30;;;;;;;2.52;100.00;99454.84;5070861;28;20021;-77
2023/12/02 04:59:15;;;;;;;82.88;35.55;;;;;;;2.07;100.00;99463.69;5070507;28;20654;-78
2023/12/02 05:01:41;;;;;;;103.28;32.17;;;;;;;2.12;100.00;99493.72;5070549;28;20421;-79
2023/12/02 05:04:06;;;;;;;107.25;31.60;;;;;;;1.77;100.00;99455.72;5052694;28;20029;-77
2023/12/02 05:06:32;;;;;;;57.63;29.13;;;;;;;1.60;100.00;99466.34;5070489;28;20099;-80
2023/12/02 05:08:57;;;;;;;63.45;28.38;;;;;;;1.50;100.00;99483.34;5070592;28;20021;-78
2023/12/02 05:11:23;;;;;;;75.18;30.85;;;;;;;1.67;100.00;99481.44;5070338;28;20396;-78
2023/12/02 05:13:50;;;;;;;87.13;31.25;;;;;;;2.21;100.00;99460.28;5070785;28;20715;-78
2023/12/02 05:16:16;;;;;;;54.70;32.38;;;;;;;2.29;100.00;99456.72;5070870;28;20028;-77
2023/12/02 05:18:41;;;;;;;55.67;30.55;;;;;;;1.61;100.00;99448.78;5069840;28;20035;-77
2023/12/02 05:21:09;;;;;;;71.30;30.42;;;;;;;2.03;100.00;99451.91;5052079;28;20448;-77
2023/12/02 05:23:35;;;;;;;60.47;31.88;;;;;;;2.41;100.00;99440.31;5070587;28;20477;-77
2023/12/02 05:26:01;;;;;;;67.88;33.65;;;;;;;2.40;100.00;99449.22;5052645;28;20033;-77
2023/12/02 05:28:27;;;;;;;78.47;35.50;;;;;;;2.26;100.00;99421.06;5069653;28;20020;-77
2023/12/02 05:30:52;;;;;;;81.18;32.67;;;;;;;2.14;100.00;99406.72;5069999;28;20024;-78
2023/12/02 05:33:18;;;;;;;70.05;30.70;;;;;;;1.78;100.00;99428.44;5069276;28;20157;-80
2023/12/02 05:35:43;;;;;;;78.95;32.00;;;;;;;1.79;100.00;99432.69;5052144;28;20109;-77
2023/12/02 05:38:09;;;;;;;117.28;31.25;;;;;;;2.11;100.00;99438.66;5070262;28;20157;-77
2023/12/02 05:40:34;;;;;;;84.60;29.25;;;;;;;1.76;100.00;99425.19;5070189;28;20716;-78
2023/12/02 05:43:00;;;;;;;110.88;29.48;;;;;;;1.65;100.00;99436.09;5070018;28;20036;-78
2023/12/02 05:45:25;;;;;;;133.40;30.80;;;;;;;1.86;100.00;99462.56;5070059;28;20132;-79
2023/12/02 05:47:51;;;;;;;198.88;33.90;;;;;;;2.06;100.00;99447.06;5052263;28;20162;-78
2023/12/02 05:50:16;;;;;;;166.93;33.55;;;;;;;2.32;100.00;99444.03;5051607;28;20039;-78
2023/12/02 05:52:41;;;;;;;84.50;29.20;;;;;;;2.22;100.00;99435.59;5069960;28;20025;-78
2023/12/02 05:55:07;;;;;;;97.55;29.13;;;;;;;2.11;100.00;99443.94;5069747;28;20408;-78
2023/12/02 05:57:32;;;;;;;73.05;28.98;;;;;;;2.19;100.00;99463.06;5069883;28;20027;-78
2023/12/02 05:59:58;;;;;;;145.05;31.35;;;;;;;2.15;100.00;99466.25;5051906;28;20105;-78
2023/12/02 06:02:23;;;;;;;63.63;30.10;;;;;;;2.39;100.00;99436.22;5069725;28;20048;-78
2023/12/02 06:04:49;;;;;;;108.03;30.27;;;;;;;1.71;100.00;99423.06;5069835;28;20044;-78
2023/12/02 06:07:14;;;;;;;83.72;29.05;;;;;;;1.85;100.00;99436.44;5070063;28;20021;-79
2023/12/02 06:09:46;;;;;;;155.35;31.88;;;;;;;2.26;100.00;99463.16;5069757;28;20024;-78
2023/12/02 06:12:11;;;;;;;110.43;30.55;;;;;;;2.52;100.00;99448.78;5069212;28;20037;-78
2023/12/02 06:14:36;;;;;;;69.10;29.55;;;;;;;2.72;100.00;99463.00;5069809;28;20020;-77
2023/12/02 06:17:03;;;;;;;104.80;31.00;;;;;;;2.53;100.00;99458.28;5069682;28;20032;-78
2023/12/02 06:19:28;;;;;;;53.80;28.55;;;;;;;2.56;100.00;99455.31;5069597;28;20049;-78
2023/12/02 06:21:54;;;;;;;70.57;27.10;;;;;;;2.56;100.00;99482.44;5068805;28;20044;-77
2023/12/02 06:24:19;;;;;;;74.25;28.73;;;;;;;2.65;100.00;99475.25;5051108;28;20522;-77
2023/12/02 06:26:45;;;;;;;86.88;27.63;;;;;;;2.57;100.00;99444.56;5068905;28;20473;-76
2023/12/02 06:29:11;;;;;;;72.10;29.08;;;;;;;2.84;100.00;99470.44;5050749;28;20040;-77
2023/12/02 06:31:37;;;;;;;74.30;28.83;;;;;;;2.79;100.00;99463.09;5050654;28;20052;-77
2023/12/02 06:34:04;;;;;;;127.18;30.88;;;;;;;2.94;100.00;99479.72;5051260;28;20117;-77
2023/12/02 06:36:29;;;;;;;60.22;28.02;;;;;;;2.67;100.00;99454.03;5069279;28;20035;-79
2023/12/02 06:38:55;;;;;;;62.72;29.90;;;;;;;2.93;100.00;99471.97;5069070;28;20024;-80
2023/12/02 06:41:20;;;;;;;100.35;30.65;;;;;;;2.93;100.00;99472.78;5069176;28;20028;-80
2023/12/02 06:43:46;;;;;;;78.68;29.88;;;;;;;2.66;100.00;99431.34;5069532;28;20391;-78
2023/12/02 06:46:20;;;;;;;101.72;33.40;;;;;;;2.84;100.00;99439.66;5068729;28;20027;-78
2023/12/02 06:48:45;;;;;;;83.68;31.65;;;;;;;2.86;100.00;99431.56;5069140;28;20194;-79
2023/12/02 06:51:11;;;;;;;65.80;35.22;;;;;;;3.20;100.00;99441.50;5069362;28;20471;-78
2023/12/02 06:53:36;;;;;;;126.55;67.97;;;;;;;3.16;100.00;99429.69;5068940;28;20025;-78
2023/12/02 06:56:01;;;;;;;61.78;32.33;;;;;;;3.19;100.00;99443.31;5068933;28;20036;-77
2023/12/02 06:58:27;;;;;;;59.13;33.33;;;;;;;2.84;100.00;99441.47;5050645;28;20039;-77
2023/12/02 07:00:53;;;;;;;49.70;30.80;;;;;;;2.96;100.00;99463.69;5068649;28;20749;-77
2023/12/02 07:03:19;;;;;;;68.00;29.90;;;;;;;3.26;100.00;99479.47;5068649;28;20047;-78
2023/12/02 07:05:44;;;;;;;103.05;35.97;;;;;;;3.17;100.00;99476.94;5068471;28;20028;-78
2023/12/02 07:08:10;;;;;;;62.50;38.15;;;;;;;3.25;100.00;99451.47;5068511;28;20043;-77
2023/12/02 07:10:35;;;;;;;48.75;29.00;;;;;;;3.43;100.00;99465.03;5068013;28;20060;-77
2023/12/02 07:13:00;;;;;;;45.92;28.45;;;;;;;3.59;100.00;99470.06;5068218;28;20108;-78
2023/12/02 07:15:26;;;;;;;127.05;63.03;;;;;;;3.13;100.00;99412.44;5068416;28;20031;-79
2023/12/02 07:17:51;;;;;;;221.27;104.55;;;;;;;3.66;100.00;99448.22;5050441;28;20477;-77
2023/12/02 07:20:18;;;;;;;95.10;47.88;;;;;;;3.71;100.00;99462.47;5068439;28;20055;-81
2023/12/02 07:22:44;;;;;;;60.00;33.13;;;;;;;3.47;100.00;99458.38;5068184;28;20430;-79
2023/12/02 07:25:09;;;;;;;61.75;30.67;;;;;;;3.79;100.00;99486.09;5050743;28;20131;-77
2023/12/02 07:27:34;;;;;;;60.83;31.40;;;;;;;3.88;100.00;99484.13;5050126;28;20028;-78
2023/12/02 07:30:00;;;;;;;65.22;31.23;;;;;;;3.51;100.00;99512.38;5068150;28;20061;-78
2023/12/02 07:32:25;;;;;;;66.20;32.05;;;;;;;3.55;100.00;99518.91;5050041;28;20051;-78
2023/12/02 07:34:50;;;;;;;75.20;32.55;;;;;;;3.54;100.00;99508.56;5068892;28;20615;-82
2023/12/02 07:37:16;;;;;;;69.05;33.90;;;;;;;3.73;100.00;99475.47;5069365;28;20029;-79
2023/12/02 07:39:41;;;;;;;60.20;33.03;;;;;;;3.90;100.00;99476.84;5068417;28;20048;-78
2023/12/02 07:42:07;;;;;;;58.55;32.47;;;;;;;3.99;100.00;99486.25;5067787;28;20112;-78
2023/12/02 07:44:32;;;;;;;62.83;33.03;;;;;;;4.27;100.00;99479.38;5068355;28;20039;-78
2023/12/02 07:46:58;;;;;;;49.75;30.55;;;;;;;4.34;100.00;99483.69;5067821;28;20386;-79
2023/12/02 07:49:23;;;;;;;139.77;65.25;;;;;;;4.69;100.00;99481.06;5068328;28;20038;-78
2023/12/02 07:51:49;;;;;;;46.13;30.15;;;;;;;4.60;100.00;99476.97;5067971;28;20506;-77
2023/12/02 07:54:14;;;;;;;47.50;31.42;;;;;;;4.74;100.00;99462.81;5068179;28;20079;-78
2023/12/02 07:56:39;;;;;;;49.38;32.53;;;;;;;5.06;100.00;99481.63;5069065;28;20028;-77
2023/12/02 07:59:05;;;;;;;45.92;29.17;;;;;;;4.94;100.00;99451.50;5071592;28;20034;-80
2023/12/02 08:01:30;;;;;;;41.40;26.90;;;;;;;5.98;100.00;99479.44;5071505;28;20408;-78
2023/12/02 08:03:56;;;;;;;37.60;26.08;;;;;;;6.70;100.00;99488.34;5072076;28;20090;-84
2023/12/02 08:06:21;;;;;;;47.75;28.90;;;;;;;6.49;100.00;99486.75;5053689;28;20129;-78
2023/12/02 08:08:47;;;;;;;38.63;25.48;;;;;;;6.06;100.00;99508.34;5053130;28;20141;-80
2023/12/02 08:11:12;;;;;;;43.40;28.00;;;;;;;7.01;100.00;99494.78;5071794;28;20115;-78
2023/12/02 08:13:38;;;;;;;34.70;23.15;;;;;;;7.44;100.00;99499.50;5071168;28;20063;-78
2023/12/02 08:16:03;;;;;;;34.58;23.50;;;;;;;7.37;100.00;99488.09;5071388;28;20021;-80
2023/12/02 08:18:29;;;;;;;44.13;24.48;;;;;;;7.75;100.00;99500.53;5071205;28;20036;-79
2023/12/02 08:20:54;;;;;;;39.20;24.55;;;;;;;8.55;100.00;99494.59;5071455;28;20174;-77
2023/12/02 08:23:20;;;;;;;44.20;31.88;;;;;;;8.49;100.00;99484.84;5071015;28;20051;-78
2023/12/02 08:25:45;;;;;;;30.98;21.85;;;;;;;7.91;100.00;99488.59;5071611;28;20024;-78
2023/12/02 08:28:10;;;;;;;34.17;23.50;;;;;;;8.91;100.00;99514.25;5070985;28;20016;-77
2023/12/02 08:30:36;;;;;;;34.17;24.33;;;;;;;7.89;100.00;99504.72;5071418;28;20025;-79
2023/12/02 08:33:03;;;;;;;34.85;24.08;;;;;;;8.42;100.00;99485.72;5071037;28;20028;-77
2023/12/02 08:35:28;;;;;;;38.65;25.25;;;;;;;8.77;100.00;99530.38;5070773;28;20032;-77
2023/12/02 08:37:54;;;;;;;35.65;24.17;;;;;;;9.29;100.00;99531.84;5071228;28;20033;-78
2023/12/02 08:40:19;;;;;;;32.15;22.35;;;;;;;12.15;78.99;99545.47;5052426;28;20036;-79
2023/12/02 08:42:45;;;;;;;30.40;21.63;;;;;;;10.29;85.97;99488.59;5070821;28;20170;-78
2023/12/02 08:45:11;;;;;;;26.58;20.38;;;;;;;11.36;90.50;99532.00;5070805;28;20047;-78
2023/12/02 08:47:36;;;;;;;26.45;20.08;;;;;;;10.40;85.79;99530.50;5070768;28;20032;-77
2023/12/02 08:50:01;;;;;;;29.52;21.17;;;;;;;10.04;88.47;99502.94;5070469;28;20378;-78
2023/12/02 08:52:27;;;;;;;29.42;22.40;;;;;;;10.67;92.93;99491.91;5071083;28;20025;-78
2023/12/02 08:54:52;;;;;;;31.15;23.02;;;;;;;9.41;95.76;99506.91;5070813;28;20032;-79
2023/12/02 08:57:18;;;;;;;38.55;26.35;;;;;;;8.82;97.93;99458.72;5070619;28;20040;-82
2023/12/02 08:59:43;;;;;;;45.97;30.48;;;;;;;8.23;100.00;99481.38;5066308;28;20541;-78
2023/12/02 09:02:09;;;;;;;39.33;26.15;;;;;;;8.10;100.00;99470.88;5054339;28;20036;-78
2023/12/02 09:04:35;;;;;;;101.15;52.60;;;;;;;8.05;100.00;99485.59;5071321;28;20104;-80
2023/12/02 09:07:01;;;;;;;39.20;25.77;;;;;;;8.25;100.00;99452.75;5070509;28;20024;-79
2023/12/02 09:09:26;;;;;;;38.53;26.75;;;;;;;8.20;100.00;99452.59;5070151;28;20654;-79
2023/12/02 09:11:52;;;;;;;34.50;24.48;;;;;;;8.27;100.00;99466.63;5052113;28;20468;-78
2023/12/02 09:14:17;;;;;;;39.72;26.52;;;;;;;8.19;100.00;99453.59;5070270;28;20525;-78
2023/12/02 09:16:47;;;;;;;33.72;22.38;;;;;;;7.69;100.00;99458.94;5052310;28;20143;-79
2023/12/02 09:19:52;;;;;;;33.42;23.88;;;;;;;7.46;100.00;99465.59;5070160;28;20024;-79
2023/12/02 09:22:46;;;;;;;31.35;23.33;;;;;;;7.24;100.00;99468.56;5054350;28;20105;-79
2023/12/02 09:25:31;;;;;;;30.63;22.38;;;;;;;6.86;100.00;99441.19;5070712;28;20025;-78
2023/12/02 09:28:05;;;;;;;28.83;21.63;;;;;;;7.13;100.00;99420.66;5070339;28;20020;-79
2023/12/02 09:30:36;;;;;;;32.13;22.58;;;;;;;7.11;100.00;99423.56;5069628;28;20404;-79
2023/12/02 09:33:04;;;;;;;31.40;22.25;;;;;;;7.05;100.00;99408.50;5069997;28;20035;-79
2023/12/02 09:35:30;;;;;;;35.13;23.23;;;;;;;7.32;100.00;99427.72;5069675;28;20404;-78
2023/12/02 09:37:57;;;;;;;36.85;25.42;;;;;;;7.23;100.00;99418.38;5070245;28;20474;-80
2023/12/02 09:40:36;;;;;;;39.03;26.55;;;;;;;7.18;100.00;99400.44;5069672;28;20482;-77
2023/12/02 09:43:16;;;;;;;38.72;25.88;;;;;;;6.92;100.00;99384.69;5069488;28;20028;-77
2023/12/02 09:46:03;;;;;;;36.47;27.33;;;;;;;7.11;100.00;99405.00;5069278;28;20047;-77
2023/12/02 09:48:33;;;;;;;41.40;27.73;;;;;;;7.13;100.00;99404.75;5051899;28;20032;-78
2023/12/02 09:51:23;;;;;;;39.67;26.08;;;;;;;7.05;100.00;99427.06;5069434;28;20034;-77
2023/12/02 09:54:04;;;;;;;37.30;26.52;;;;;;;7.31;100.00;99412.81;5051521;28;20041;-78
2023/12/02 09:56:35;;;;;;;42.65;29.05;;;;;;;7.26;100.00;99402.06;5051539;28;20024;-78
2023/12/02 09:59:17;;;;;;;40.75;28.50;;;;;;;7.98;100.00;99407.84;5069425;28;20029;-83
2023/12/02 10:01:47;;;;;;;41.35;26.60;;;;;;;8.39;100.00;99406.41;5070018;28;20074;-78
2023/12/02 10:04:40;;;;;;;40.28;28.10;;;;;;;8.21;100.00;99385.97;5069452;28;20489;-78
2023/12/02 10:07:38;;;;;;;36.63;26.75;;;;;;;8.48;100.00;99403.50;5069727;28;20035;-79
2023/12/02 10:10:03;;;;;;;;;;;;;;;8.43;100.00;99398.84;5062008;28;20413;-79
2023/12/02 10:12:40;;;;;;;34.20;24.98;;;;;;;8.59;100.00;99402.78;5069598;28;19919;-78
2023/12/02 10:15:09;;;;;;;33.60;23.85;;;;;;;8.82;100.00;99381.63;5069596;28;20055;-79
2023/12/02 10:17:49;;;;;;;63.10;41.70;;;;;;;9.05;100.00;99361.47;5051353;28;20028;-79
2023/12/02 10:20:16;;;;;;;35.55;25.65;;;;;;;9.80;100.00;99389.41;5068779;28;20040;-80
2023/12/02 10:22:48;;;;;;;60.58;37.22;;;;;;;9.43;100.00;99362.97;5051096;28;20502;-80
2023/12/02 10:25:42;;;;;;;83.07;49.30;;;;;;;9.56;100.00;99368.09;5069332;28;20066;-78
2023/12/02 10:28:21;;;;;;;88.45;52.65;;;;;;;10.16;100.00;99371.59;5069027;28;20033;-79
2023/12/02 10:30:51;;;;;;;76.55;47.25;;;;;;;9.76;100.00;99325.16;5069413;28;20075;-79
2023/12/02 10:33:53;;;;;;;48.30;31.50;;;;;;;9.81;100.00;99333.28;5069192;28;20024;-79
2023/12/02 10:36:20;;;;;;;51.55;35.47;;;;;;;9.51;100.00;99338.69;5069025;28;20485;-78
2023/12/02 10:38:55;;;;;;;44.43;32.57;;;;;;;9.54;100.00;99337.41;5069033;28;20107;-78
2023/12/02 10:41:35;;;;;;;50.50;36.30;;;;;;;9.59;100.00;99333.03;5062415;28;20029;-79
2023/12/02 10:44:07;;;;;;;44.38;29.70;;;;;;;9.31;100.00;99300.94;5069146;28;20047;-81
2023/12/02 10:46:33;;;;;;;54.92;38.08;;;;;;;10.20;100.00;99330.13;5051000;28;20032;-79
2023/12/02 10:49:00;;;;;;;78.25;50.63;;;;;;;9.42;100.00;99345.41;5068693;28;20063;-78
2023/12/02 10:51:27;;;;;;;122.38;79.65;;;;;;;8.95;100.00;99339.94;5044237;28;20040;-79
2023/12/02 10:53:58;;;;;;;48.28;37.42;;;;;;;8.68;100.00;99312.91;5069188;28;20032;-78
2023/12/02 10:56:26;;;;;;;44.10;31.13;;;;;;;8.96;100.00;99349.53;5069291;28;20021;-80
2023/12/02 10:58:52;;;;;;;45.95;32.92;;;;;;;9.08;100.00;99345.06;5068902;28;20028;-79
2023/12/02 11:01:43;;;;;;;50.75;35.42;;;;;;;8.90;100.00;99350.44;5068284;28;20055;-82
2023/12/02 11:04:23;;;;;;;47.25;32.28;;;;;;;8.93;100.00;99326.88;5068846;28;20040;-78
2023/12/02 11:07:03;;;;;;;45.13;31.83;;;;;;;9.05;100.00;99334.88;5068671;28;20050;-79
2023/12/02 11:09:34;;;;;;;39.38;28.27;;;;;;;8.84;100.00;99317.59;5068802;28;20043;-78
2023/12/02 11:12:16;;;;;;;41.90;30.10;;;;;;;9.04;100.00;99302.16;5068573;28;20037;-80
2023/12/02 11:14:43;;;;;;;83.13;52.70;;;;;;;8.57;100.00;99296.69;5068823;28;20040;-79
2023/12/02 11:17:41;;;;;;;82.30;59.20;;;;;;;8.56;100.00;99272.97;5068478;28;20017;-79